createdAt,value
2023-05-19T00:01:39.225Z,5.31
2023-05-19T00:04:09.083Z,5.38
2023-05-19T00:06:38.464Z,5.35
2023-05-19T00:09:09.518Z,5.41
2023-05-19T00:11:40.343Z,5.45
2023-05-19T00:14:11.014Z,5.65
2023-05-19T00:16:42.262Z,5.57
2023-05-19T00:19:11.469Z,5.59
2023-05-19T00:21:40.627Z,5.56
2023-05-19T00:24:09.800Z,5.53
2023-05-19T00:26:38.941Z,5.38
2023-05-19T00:29:09.235Z,5.40
2023-05-19T00:31:38.485Z,5.26
2023-05-19T00:34:08.991Z,5.26
2023-05-19T00:36:38.295Z,5.25
2023-05-19T00:39:07.622Z,5.33
2023-05-19T00:41:37.723Z,5.45
2023-05-19T00:44:08.023Z,5.36
2023-05-19T00:46:37.984Z,5.37
2023-05-19T00:49:08.530Z,5.38
2023-05-19T00:51:38.103Z,5.22
2023-05-19T00:54:07.440Z,5.17
2023-05-19T00:56:36.589Z,5.06
2023-05-19T00:59:06.479Z,5.08
2023-05-19T01:01:36.664Z,5.01
2023-05-19T01:04:09.801Z,5.12
2023-05-19T01:06:40.442Z,4.98
2023-05-19T01:09:09.543Z,5.04
2023-05-19T01:11:38.781Z,5.01
2023-05-19T01:14:07.884Z,4.98
2023-05-19T01:16:41.582Z,4.87
2023-05-19T01:19:28.176Z,4.86
2023-05-19T01:22:23.849Z,4.79
2023-05-19T01:25:38.027Z,4.79
2023-05-19T01:28:27.094Z,4.86
2023-05-19T01:30:59.589Z,4.78
2023-05-19T01:33:31.025Z,4.80
2023-05-19T01:36:02.978Z,4.79
2023-05-19T01:38:34.672Z,4.84
2023-05-19T01:41:06.957Z,4.83
2023-05-19T01:43:38.035Z,4.79
2023-05-19T01:46:10.112Z,4.83
2023-05-19T01:48:39.539Z,4.80
2023-05-19T01:51:08.669Z,4.88
2023-05-19T01:53:37.828Z,4.85
2023-05-19T01:56:08.252Z,4.90
2023-05-19T01:58:44.975Z,4.91
2023-05-19T02:01:25.389Z,4.94
2023-05-19T02:04:08.507Z,4.92
2023-05-19T02:06:44.110Z,4.90
2023-05-19T02:09:22.020Z,4.93
2023-05-19T02:11:56.449Z,4.96
2023-05-19T02:14:34.861Z,5.00
2023-05-19T02:17:06.408Z,4.95
2023-05-19T02:19:41.040Z,4.97
2023-05-19T02:22:10.612Z,4.87
2023-05-19T02:24:41.375Z,4.95
2023-05-19T02:27:10.482Z,5.03
2023-05-19T02:29:39.630Z,5.01
2023-05-19T02:32:10.543Z,5.06
2023-05-19T02:34:39.752Z,5.13
2023-05-19T02:37:09.324Z,4.97
2023-05-19T02:39:38.421Z,5.05
2023-05-19T02:42:07.757Z,5.11
2023-05-19T02:44:36.925Z,5.05
2023-05-19T02:47:06.187Z,5.09
2023-05-19T02:49:36.766Z,5.11
2023-05-19T02:52:06.734Z,5.14
2023-05-19T02:54:36.418Z,5.12
2023-05-19T02:57:06.666Z,5.21
2023-05-19T02:59:36.588Z,5.14
2023-05-19T03:02:06.109Z,5.18
2023-05-19T03:04:41.520Z,5.20
2023-05-19T03:07:13.426Z,5.24
2023-05-19T03:09:43.044Z,5.20
2023-05-19T03:12:12.154Z,5.15
2023-05-19T03:14:41.403Z,5.15
2023-05-19T03:17:11.045Z,5.23
2023-05-19T03:19:41.610Z,5.12
2023-05-19T03:22:10.849Z,5.10
2023-05-19T03:24:40.004Z,5.26
2023-05-19T03:27:09.939Z,5.32
2023-05-19T03:29:39.417Z,5.34
2023-05-19T03:32:08.920Z,5.32
2023-05-19T03:34:39.889Z,5.44
2023-05-19T03:37:10.662Z,5.48
2023-05-19T03:39:40.624Z,5.49
2023-05-19T03:42:09.843Z,5.43
2023-05-19T03:44:39.535Z,5.53
2023-05-19T03:47:08.828Z,5.62
2023-05-19T03:50:01.126Z,5.64
2023-05-19T03:52:45.495Z,5.69
2023-05-19T03:55:37.192Z,5.67
2023-05-19T03:58:06.420Z,5.77
2023-05-19T04:00:35.684Z,5.76
2023-05-19T04:03:05.617Z,5.88
2023-05-19T04:05:37.513Z,5.90
2023-05-19T04:08:06.970Z,5.84
2023-05-19T04:10:36.414Z,5.96
2023-05-19T04:13:05.555Z,6.20
2023-05-19T04:15:34.902Z,6.17
2023-05-19T04:18:04.115Z,6.22
2023-05-19T04:20:33.500Z,6.23
2023-05-19T04:23:04.176Z,6.39
2023-05-19T04:25:33.555Z,6.45
2023-05-19T04:28:03.249Z,6.51
2023-05-19T04:30:33.373Z,6.50
2023-05-19T04:33:04.871Z,6.54
2023-05-19T04:35:34.394Z,6.75
2023-05-19T04:38:06.033Z,6.83
2023-05-19T04:40:37.093Z,6.89
2023-05-19T04:43:07.267Z,7.03
2023-05-19T04:45:37.679Z,7.13
2023-05-19T04:48:07.890Z,7.07
2023-05-19T04:50:38.553Z,7.02
2023-05-19T04:53:09.527Z,7.06
2023-05-19T04:55:39.633Z,7.31
2023-05-19T04:58:09.335Z,7.23
2023-05-19T05:00:39.118Z,7.46
2023-05-19T05:03:10.303Z,7.47
2023-05-19T05:05:39.717Z,7.69
2023-05-19T05:08:12.358Z,7.33
2023-05-19T05:10:44.954Z,7.63
2023-05-19T05:13:14.546Z,7.57
2023-05-19T05:15:45.410Z,7.78
2023-05-19T05:18:16.304Z,7.86
2023-05-19T05:20:46.240Z,7.95
2023-05-19T05:23:18.288Z,8.09
2023-05-19T05:25:50.111Z,8.15
2023-05-19T05:28:19.638Z,8.01
2023-05-19T05:30:50.332Z,8.12
2023-05-19T05:33:22.248Z,8.34
2023-05-19T05:35:51.769Z,8.56
2023-05-19T05:38:22.530Z,8.50
2023-05-19T05:40:51.811Z,8.59
2023-05-19T05:43:21.125Z,8.70
2023-05-19T05:45:55.915Z,8.84
2023-05-19T05:48:25.615Z,9.09
2023-05-19T05:50:57.419Z,9.26
2023-05-19T05:53:33.070Z,9.49
2023-05-19T05:56:04.073Z,9.39
2023-05-19T05:58:41.633Z,9.68
2023-05-19T06:01:11.541Z,9.72
2023-05-19T06:03:44.975Z,10.09
2023-05-19T06:06:17.243Z,10.06
2023-05-19T06:08:47.771Z,10.23
2023-05-19T06:11:17.331Z,10.16
2023-05-19T06:13:46.492Z,10.31
2023-05-19T06:16:23.947Z,10.54
2023-05-19T06:18:55.653Z,10.32
2023-05-19T06:21:24.816Z,10.65
2023-05-19T06:23:55.507Z,10.98
2023-05-19T06:26:24.624Z,10.83
2023-05-19T06:28:53.754Z,11.10
2023-05-19T06:31:23.230Z,11.02
2023-05-19T06:33:55.577Z,11.42
2023-05-19T06:36:24.710Z,11.54
2023-05-19T06:38:59.245Z,11.53
2023-05-19T06:41:30.531Z,11.63
2023-05-19T06:43:59.681Z,11.55
2023-05-19T06:46:28.803Z,11.94
2023-05-19T06:48:58.044Z,12.43
2023-05-19T06:51:29.232Z,12.92
2023-05-19T06:54:00.698Z,12.77
2023-05-19T06:56:30.469Z,13.54
2023-05-19T06:58:59.637Z,13.51
2023-05-19T07:01:34.430Z,13.86
2023-05-19T07:04:04.074Z,13.61
2023-05-19T07:06:33.897Z,14.23
2023-05-19T07:09:05.491Z,13.79
2023-05-19T07:11:34.943Z,14.63
2023-05-19T07:14:04.526Z,14.99
2023-05-19T07:16:34.544Z,14.82
2023-05-19T07:19:03.763Z,14.70
2023-05-19T07:21:32.990Z,15.39
2023-05-19T07:24:03.568Z,15.11
2023-05-19T07:26:32.836Z,15.78
2023-05-19T07:29:01.974Z,15.11
2023-05-19T07:31:31.263Z,15.48
2023-05-19T07:34:00.705Z,15.50
2023-05-19T07:36:29.772Z,15.89
2023-05-19T07:38:59.000Z,15.90
2023-05-19T07:41:29.569Z,16.21
2023-05-19T07:43:58.725Z,16.80
2023-05-19T07:46:27.939Z,16.16
2023-05-19T07:48:57.079Z,15.99
2023-05-19T07:51:26.243Z,17.02
2023-05-19T07:53:55.355Z,17.11
2023-05-19T07:56:25.132Z,16.71
2023-05-19T07:58:55.758Z,17.21
2023-05-19T08:01:24.857Z,16.49
2023-05-19T08:03:54.198Z,16.30
2023-05-19T08:06:25.251Z,15.97
2023-05-19T08:08:54.472Z,16.39
2023-05-19T08:11:24.125Z,16.25
2023-05-19T08:13:54.585Z,16.58
2023-05-19T08:16:24.429Z,16.59
2023-05-19T08:18:53.603Z,16.16
2023-05-19T08:21:22.773Z,16.99
2023-05-19T08:23:51.962Z,16.99
2023-05-19T08:26:21.483Z,17.37
2023-05-19T08:28:50.672Z,17.26
2023-05-19T08:31:22.598Z,16.28
2023-05-19T08:33:51.787Z,16.56
2023-05-19T08:36:22.054Z,16.87
2023-05-19T08:38:51.480Z,16.38
2023-05-19T08:41:21.528Z,16.73
2023-05-19T08:43:51.063Z,16.84
2023-05-19T08:46:26.028Z,16.73
2023-05-19T08:49:00.250Z,17.28
2023-05-19T08:51:40.056Z,15.65
2023-05-19T08:54:15.710Z,16.80
2023-05-19T08:56:46.475Z,16.84
2023-05-19T08:59:16.112Z,16.60
2023-05-19T09:01:47.526Z,17.42
2023-05-19T09:04:17.919Z,17.01
2023-05-19T09:06:47.239Z,15.72
2023-05-19T09:09:17.326Z,16.89
2023-05-19T09:11:48.041Z,17.52
2023-05-19T09:14:17.131Z,17.62
2023-05-19T09:16:51.107Z,17.88
2023-05-19T09:19:20.821Z,17.77
2023-05-19T09:22:00.949Z,18.69
2023-05-19T09:24:30.523Z,18.24
2023-05-19T09:27:00.421Z,17.78
2023-05-19T09:29:29.695Z,17.66
2023-05-19T09:32:01.577Z,18.27
2023-05-19T09:34:30.697Z,18.49
2023-05-19T09:37:00.760Z,18.33
2023-05-19T09:39:30.802Z,17.64
2023-05-19T09:41:59.975Z,17.57
2023-05-19T09:44:30.376Z,18.20
2023-05-19T09:47:01.152Z,16.65
2023-05-19T09:49:31.468Z,17.16
2023-05-19T09:52:03.819Z,15.97
2023-05-19T09:54:35.156Z,17.56
2023-05-19T09:57:08.516Z,17.72
2023-05-19T09:59:39.158Z,17.77
2023-05-19T10:02:16.151Z,17.72
2023-05-19T10:04:46.012Z,18.13
2023-05-19T10:07:17.563Z,18.36
2023-05-19T10:09:47.058Z,18.03
2023-05-19T10:12:17.316Z,17.65
2023-05-19T10:14:46.820Z,18.47
2023-05-19T10:17:17.526Z,18.53
2023-05-19T10:19:48.877Z,17.75
2023-05-19T10:22:18.017Z,17.47
2023-05-19T10:24:47.114Z,18.62
2023-05-19T10:27:18.147Z,18.63
2023-05-19T10:29:51.684Z,16.92
2023-05-19T10:32:26.033Z,18.30
2023-05-19T10:35:27.930Z,18.62
2023-05-19T10:38:05.730Z,19.34
2023-05-19T10:40:38.281Z,18.82
2023-05-19T10:43:23.096Z,18.91
2023-05-19T10:45:55.201Z,18.77
2023-05-19T10:48:25.803Z,19.17
2023-05-19T10:50:55.849Z,19.41
2023-05-19T10:53:32.901Z,19.30
2023-05-19T10:56:04.356Z,18.73
2023-05-19T10:58:52.074Z,19.88
2023-05-19T11:01:24.574Z,18.76
2023-05-19T11:03:57.375Z,18.44
2023-05-19T11:06:28.229Z,19.80
2023-05-19T11:09:00.691Z,19.55
2023-05-19T11:11:48.530Z,18.52
2023-05-19T11:14:20.904Z,19.06
2023-05-19T11:16:50.960Z,20.03
2023-05-19T11:19:26.857Z,19.64
2023-05-19T11:21:57.442Z,19.62
2023-05-19T11:24:40.026Z,20.00
2023-05-19T11:27:23.941Z,20.39
2023-05-19T11:29:53.665Z,20.49
2023-05-19T11:32:24.108Z,19.43
2023-05-19T11:34:55.897Z,20.53
2023-05-19T11:37:25.259Z,20.13
2023-05-19T11:39:54.606Z,19.57
2023-05-19T11:42:23.718Z,19.83
2023-05-19T11:44:57.291Z,19.87
2023-05-19T11:47:26.848Z,19.60
2023-05-19T11:49:57.723Z,19.76
2023-05-19T11:52:28.207Z,20.58
2023-05-19T11:55:00.993Z,20.80
2023-05-19T11:57:30.495Z,20.36
2023-05-19T12:00:05.542Z,19.38
2023-05-19T12:02:34.714Z,19.98
2023-05-19T12:05:05.705Z,20.71
2023-05-19T12:07:34.940Z,20.65
2023-05-19T12:10:05.357Z,20.15
2023-05-19T12:12:35.814Z,20.33
2023-05-19T12:15:05.466Z,20.61
2023-05-19T12:17:34.867Z,20.41
2023-05-19T12:20:05.980Z,20.61
2023-05-19T12:22:35.236Z,20.22
2023-05-19T12:25:05.244Z,19.68
2023-05-19T12:27:38.210Z,20.46
2023-05-19T12:30:08.621Z,20.88
2023-05-19T12:32:37.876Z,21.21
2023-05-19T12:35:09.361Z,21.05
2023-05-19T12:37:42.463Z,21.45
2023-05-19T12:40:16.029Z,21.38
2023-05-19T12:42:46.884Z,20.84
2023-05-19T12:45:16.204Z,20.34
2023-05-19T12:47:50.195Z,20.54
2023-05-19T12:50:20.724Z,20.42
2023-05-19T12:52:52.128Z,20.91
2023-05-19T12:55:23.170Z,20.95
2023-05-19T12:57:54.807Z,19.67
2023-05-19T13:00:29.004Z,19.60
2023-05-19T13:03:01.454Z,20.92
2023-05-19T13:05:34.744Z,19.80
2023-05-19T13:08:06.880Z,20.60
2023-05-19T13:10:37.576Z,20.75
2023-05-19T13:13:07.901Z,20.85
2023-05-19T13:15:40.367Z,20.68
2023-05-19T13:18:10.930Z,21.17
2023-05-19T13:20:42.825Z,21.13
2023-05-19T13:23:12.747Z,22.02
2023-05-19T13:25:42.512Z,22.16
2023-05-19T13:28:11.996Z,20.83
2023-05-19T13:30:44.338Z,21.51
2023-05-19T13:33:13.598Z,21.48
2023-05-19T13:35:44.212Z,21.39
2023-05-19T13:38:13.383Z,21.15
2023-05-19T13:40:42.500Z,21.55
2023-05-19T13:43:11.597Z,20.79
2023-05-19T13:45:42.176Z,20.98
2023-05-19T13:48:12.176Z,21.27
2023-05-19T13:50:41.371Z,21.25
2023-05-19T13:53:11.940Z,21.02
2023-05-19T13:55:41.436Z,21.27
2023-05-19T13:58:11.026Z,20.67
2023-05-19T14:00:40.917Z,21.12
2023-05-19T14:03:10.204Z,21.74
2023-05-19T14:05:39.464Z,20.94
2023-05-19T14:08:08.693Z,21.43
2023-05-19T14:10:39.177Z,20.81
2023-05-19T14:15:42.244Z,20.69
2023-05-19T14:18:11.463Z,20.09
2023-05-19T14:20:40.577Z,20.38
2023-05-19T14:23:09.693Z,20.97
2023-05-19T14:25:40.223Z,21.05
2023-05-19T14:28:10.950Z,21.14
2023-05-19T14:30:40.425Z,20.93
2023-05-19T14:33:10.279Z,20.94
2023-05-19T14:35:39.496Z,20.74
2023-05-19T14:38:08.613Z,20.65
2023-05-19T14:40:41.316Z,20.63
2023-05-19T14:43:10.633Z,21.25
2023-05-19T14:45:41.943Z,20.32
2023-05-19T14:48:11.864Z,20.64
2023-05-19T14:50:41.205Z,20.13
2023-05-19T14:53:10.554Z,20.10
2023-05-19T14:55:41.005Z,21.05
2023-05-19T14:58:23.614Z,21.26
2023-05-19T15:00:59.956Z,20.38
2023-05-19T15:03:29.160Z,21.40
2023-05-19T15:05:58.295Z,20.73
2023-05-19T15:08:27.488Z,20.51
2023-05-19T15:10:58.027Z,20.18
2023-05-19T15:13:27.217Z,21.37
2023-05-19T15:16:08.385Z,21.54
2023-05-19T15:18:44.674Z,21.66
2023-05-19T15:21:14.013Z,21.28
2023-05-19T15:23:43.065Z,21.15
2023-05-19T15:26:14.234Z,20.24
2023-05-19T15:28:43.367Z,19.43
2023-05-19T15:31:12.574Z,18.82
2023-05-19T15:33:41.701Z,19.41
2023-05-19T15:36:16.152Z,18.72
2023-05-19T15:38:45.380Z,18.66
2023-05-19T15:41:15.848Z,18.23
2023-05-19T15:43:46.394Z,18.11
2023-05-19T15:46:16.025Z,18.36
2023-05-19T15:48:45.304Z,18.19
2023-05-19T15:51:14.454Z,18.95
2023-05-19T15:53:43.704Z,19.12
2023-05-19T15:56:13.342Z,18.81
2023-05-19T15:58:44.023Z,18.53
2023-05-19T16:01:13.285Z,18.38
2023-05-19T16:03:42.598Z,18.28
2023-05-19T16:06:11.933Z,19.01
2023-05-19T16:08:41.275Z,19.04
2023-05-19T16:11:10.451Z,19.28
2023-05-19T16:13:39.756Z,18.63
2023-05-19T16:16:10.436Z,18.30
2023-05-19T16:18:39.598Z,17.81
2023-05-19T16:21:08.874Z,17.40
2023-05-19T16:23:37.993Z,17.59
2023-05-19T16:26:07.187Z,17.34
2023-05-19T16:28:36.317Z,17.20
2023-05-19T16:31:05.594Z,17.01
2023-05-19T16:33:36.048Z,17.28
2023-05-19T16:36:06.394Z,17.12
2023-05-19T16:38:35.539Z,17.54
2023-05-19T16:41:05.250Z,17.08
2023-05-19T16:43:35.848Z,17.44
2023-05-19T16:46:05.360Z,16.92
2023-05-19T16:48:36.287Z,16.72
2023-05-19T16:51:06.364Z,16.87
2023-05-19T16:53:35.628Z,16.69
2023-05-19T16:56:04.944Z,16.66
2023-05-19T16:58:34.098Z,16.62
2023-05-19T17:01:03.993Z,16.40
2023-05-19T17:03:33.193Z,16.53
2023-05-19T17:06:04.845Z,16.79
2023-05-19T17:08:34.684Z,16.69
2023-05-19T17:11:05.224Z,16.62
2023-05-19T17:13:36.259Z,17.14
2023-05-19T17:16:05.667Z,17.53
2023-05-19T17:18:34.734Z,17.29
2023-05-19T17:21:05.622Z,17.05
2023-05-19T17:23:34.857Z,16.69
2023-05-19T17:26:04.022Z,16.48
2023-05-19T17:28:33.385Z,16.35
2023-05-19T17:31:03.161Z,16.14
2023-05-19T17:33:32.336Z,16.19
2023-05-19T17:36:05.880Z,16.47
2023-05-19T17:38:35.632Z,15.78
2023-05-19T17:41:09.671Z,15.82
2023-05-19T17:43:38.997Z,15.67
2023-05-19T17:46:08.602Z,15.68
2023-05-19T17:48:37.731Z,15.60
2023-05-19T17:51:08.296Z,15.57
2023-05-19T17:53:38.203Z,15.36
2023-05-19T17:56:10.129Z,15.50
2023-05-19T17:58:41.241Z,15.33
2023-05-19T18:01:11.225Z,15.35
2023-05-19T18:03:41.347Z,15.04
2023-05-19T18:06:13.150Z,15.07
2023-05-19T18:08:43.473Z,15.26
2023-05-19T18:11:13.432Z,15.20
2023-05-19T18:13:42.643Z,15.15
2023-05-19T18:16:12.260Z,15.13
2023-05-19T18:18:43.634Z,15.14
2023-05-19T18:21:17.782Z,15.11
2023-05-19T18:23:47.874Z,15.14
2023-05-19T18:26:17.284Z,14.98
2023-05-19T18:28:46.477Z,14.99
2023-05-19T18:31:19.802Z,14.99
2023-05-19T18:33:49.995Z,15.05
2023-05-19T18:36:20.529Z,15.01
2023-05-19T18:38:50.690Z,15.07
2023-05-19T18:41:19.776Z,15.06
2023-05-19T18:43:48.984Z,14.90
2023-05-19T18:46:19.081Z,14.95
2023-05-19T18:48:49.868Z,14.90
2023-05-19T18:51:21.712Z,14.90
2023-05-19T18:53:50.975Z,14.73
2023-05-19T18:56:28.451Z,14.77
2023-05-19T18:58:57.813Z,14.73
2023-05-19T19:01:27.314Z,14.72
2023-05-19T19:03:56.776Z,14.70
2023-05-19T19:06:27.732Z,14.59
2023-05-19T19:08:57.284Z,14.62
2023-05-19T19:11:26.353Z,14.46
2023-05-19T19:13:56.634Z,14.46
2023-05-19T19:16:25.950Z,14.40
2023-05-19T19:18:55.208Z,14.45
2023-05-19T19:21:25.864Z,14.28
2023-05-19T19:23:55.703Z,14.32
2023-05-19T19:26:27.013Z,14.21
2023-05-19T19:28:56.412Z,14.14
2023-05-19T19:31:28.826Z,13.99
2023-05-19T19:34:00.941Z,14.03
2023-05-19T19:36:31.983Z,14.09
2023-05-19T19:39:01.607Z,14.01
2023-05-19T19:41:33.422Z,13.93
2023-05-19T19:44:02.883Z,13.92
2023-05-19T19:46:34.851Z,14.01
2023-05-19T19:49:04.150Z,13.86
2023-05-19T19:51:35.060Z,13.87
2023-05-19T19:54:04.217Z,13.69
2023-05-19T19:56:33.379Z,13.67
2023-05-19T19:59:02.486Z,13.60
2023-05-19T20:01:31.754Z,13.55
2023-05-19T20:04:01.125Z,13.45
2023-05-19T20:06:31.027Z,13.44
2023-05-19T20:09:01.561Z,13.33
2023-05-19T20:11:31.408Z,13.24
2023-05-19T20:14:00.668Z,13.14
2023-05-19T20:16:29.862Z,13.14
2023-05-19T20:18:59.170Z,13.02
2023-05-19T20:21:28.354Z,13.00
2023-05-19T20:23:57.477Z,12.83
2023-05-19T20:26:29.104Z,12.80
2023-05-19T20:28:58.952Z,12.74
2023-05-19T20:31:28.136Z,12.70
2023-05-19T20:33:59.360Z,12.67
2023-05-19T20:36:30.231Z,12.68
2023-05-19T20:38:59.687Z,12.55
2023-05-19T20:41:30.409Z,12.44
2023-05-19T20:44:03.175Z,12.33
2023-05-19T20:46:32.438Z,12.27
2023-05-19T20:49:01.717Z,12.26
2023-05-19T20:51:31.186Z,12.23
2023-05-19T20:54:01.022Z,12.21
2023-05-19T20:56:31.781Z,12.12
2023-05-19T20:59:00.913Z,12.05
2023-05-19T21:01:30.666Z,11.99
2023-05-19T21:03:59.824Z,11.92
2023-05-19T21:06:29.077Z,11.95
2023-05-19T21:08:58.255Z,11.94
2023-05-19T21:11:27.485Z,11.91
2023-05-19T21:13:58.149Z,11.88
2023-05-19T21:16:27.525Z,11.80
2023-05-19T21:18:56.840Z,11.77
2023-05-19T21:21:26.320Z,11.76
2023-05-19T21:23:55.561Z,11.69
2023-05-19T21:26:24.734Z,11.63
2023-05-19T21:28:53.920Z,11.64
2023-05-19T21:31:24.556Z,11.56
2023-05-19T21:33:53.905Z,11.59
2023-05-19T21:36:23.516Z,11.65
2023-05-19T21:38:52.721Z,11.62
2023-05-19T21:41:22.413Z,11.62
2023-05-19T21:43:51.658Z,11.65
2023-05-19T21:46:20.985Z,11.60
2023-05-19T21:48:51.529Z,11.51
2023-05-19T21:51:20.700Z,11.45
2023-05-19T21:53:49.821Z,11.45
2023-05-19T21:56:18.907Z,11.48
2023-05-19T21:58:47.989Z,11.39
2023-05-19T22:01:17.364Z,11.37
2023-05-19T22:03:46.857Z,11.43
2023-05-19T22:06:17.497Z,11.44
2023-05-19T22:08:46.692Z,11.31
2023-05-19T22:11:17.967Z,11.31
2023-05-19T22:13:47.109Z,11.26
2023-05-19T22:16:16.293Z,11.21
2023-05-19T22:18:45.432Z,11.20
2023-05-19T22:21:16.192Z,11.09
2023-05-19T22:23:47.910Z,10.99
2023-05-19T22:26:17.063Z,10.90
2023-05-19T22:28:46.215Z,10.93
2023-05-19T22:31:15.391Z,10.88
2023-05-19T22:33:44.669Z,10.79
2023-05-19T22:36:15.939Z,10.78
2023-05-19T22:38:46.468Z,10.74
2023-05-19T22:41:15.724Z,10.65
2023-05-19T22:43:44.846Z,10.63
2023-05-19T22:46:14.047Z,10.60
2023-05-19T22:48:43.186Z,10.53
2023-05-19T22:51:12.310Z,10.51
2023-05-19T22:53:42.453Z,10.47
2023-05-19T22:56:13.337Z,10.41
2023-05-19T22:58:42.497Z,10.36
2023-05-19T23:01:11.654Z,10.28
2023-05-19T23:03:40.807Z,10.24
2023-05-19T23:06:09.934Z,10.14
2023-05-19T23:08:39.054Z,10.14
2023-05-19T23:11:08.244Z,10.16
2023-05-19T23:13:38.753Z,10.09
2023-05-19T23:16:08.113Z,10.04
2023-05-19T23:18:37.236Z,10.01
2023-05-19T23:21:06.340Z,9.98
2023-05-19T23:23:37.532Z,9.98
2023-05-19T23:26:06.736Z,9.97
2023-05-19T23:28:35.920Z,9.95
2023-05-19T23:31:06.504Z,9.93
2023-05-19T23:33:35.690Z,9.83
2023-05-19T23:36:08.223Z,9.83
2023-05-19T23:38:37.892Z,9.79
2023-05-19T23:41:07.140Z,9.76
2023-05-19T23:43:37.687Z,9.78
2023-05-19T23:46:08.478Z,9.76
2023-05-19T23:48:37.700Z,9.73
2023-05-19T23:51:07.057Z,9.75
2023-05-19T23:53:36.329Z,9.72
2023-05-19T23:56:05.947Z,9.70
2023-05-19T23:58:35.054Z,9.72
